Jackson Municipal, MN

16:08 CDT 25. Říjen 2014 (GMT -0500)
Estherville Municipal | Change Station
CLOSE
Current Station
Letiště
Location: Estherville,
Nadmořská výška: 1316 ft
Poblíž povětrnostní stanice

Výška 1316 ft 43.40 °N, 94.75 °W | Updated 16 minutes ago

Jasno
Jasno
66 °F
Pocit jako 66 °F
S
12
Vítr proměnlivý Vítr od SSZ

Dnes
Vysoké -- | Nízké -- °F
--% Možnost srážek
Včera
Vysoké -- | Nízké -- °F
Precip. -- inčů
7:46 AM 6:20 PM
Dorůstající srpek, 4% visible
Tlak 30.09 inčů
Viditelnost 10.0 mílí
Zataženo Jasno
Rosný bod 27 °F
Vlhkost 23%
Dešťové srážky 0.00 inčů
Sněhová pokrývka Není k dispozici
UV záření 2 ze 12
Pyl 1.70 ze 12
Kvalita ovzduší Není k dispozici
Flu Activity Sporadic
METAR KEST 252052Z AUTO 33010KT 10SM CLR 19/M03 A3008 RMK AO2 SLP187 T01891028 56012

More Conditions Fewer Conditions

Tlak 30.09 inčů
Viditelnost 10.0 mílí
Zataženo Jasno
Rosný bod 27 °F
Vlhkost 23%
Dešťové srážky 0.00 inčů
Sněhová pokrývka Není k dispozici
UV záření 2 ze 12
Pyl 1.70 ze 12
Kvalita ovzduší Není k dispozici
Flu Activity Sporadic
METAR KEST 252052Z AUTO 33010KT 10SM CLR 19/M03 A3008 RMK AO2 SLP187 T01891028 56012

More Conditions Fewer Conditions

10-Day Weather Forecast

Almanac

Astronomie

Oct. 25, 2014 Východ Západ
Skutečný čas 07:46 CDT 18:20 CDT
Občanský soumrak 07:17 CDT 18:50 CDT
Námořní soumrak 06:43 CDT 19:23 CDT
Astronomický soumrak 06:10 CDT 19:56 CDT
Měsíc 09:28 CDT 19:41 CDT
Délka denního světla 11h 32m
Délka dne
10h 33m
Tomorrow will be 2m 45s shorter.
Dorůstající srpek, 4% of the Moon is Illuminated
Dnes
Dorůstající srpek
Říj 30
První čtvrť
Lis 6
Úplněk
Lis 14
Ubývající
Lis 22
Nov

Dnešní extrémy

State Highs State Lows

Community

WunderPhotos

Upload Photos

1,764,996 snímků staženo!

Nearby

Výška sněhu

Station Hloubka Nadmořská výška
Žádný nový sníh nebyl hlášen

Seizmická činnost

Město Distance Mag. Čas & datum
Žádné zemětřesení v okolí nebylo hlášeno
Minimální zobrazený rozsah je 2.5.

Pobřežní teplota vody

Lokalita Teplota
Stanice nic nehlásí

Poblíž povětrnostní stanice